Time;durP1;ratioP1;P1;durP2;ratioP2;P2;SDS_P1;SDS_P2;PMS_P1;PMS_P2;Temp;Humidity;BMP_temperature;BMP_pressure;BME280_temperature;BME280_humidity;BME280_pressure;Samples;Min_cycle;Max_cycle;Signal;HPM_P1;HPM_P2
2022/11/17 00:03:24;;;;;;;6.85;2.78;;;;;;;8.57;100.00;98513.78;10537893;28;20062;-73
2022/11/17 00:08:25;;;;;;;3.30;2.47;;;;;;;8.62;100.00;98502.13;10537630;28;20397;-71
2022/11/17 00:24:08;;;;;;;2.38;2.17;;;;;;;8.76;100.00;98472.50;10537060;28;20071;-71
2022/11/17 00:29:11;;;;;;;4.53;2.58;;;;;;;8.72;100.00;98455.47;10537450;28;20484;-71
2022/11/17 00:34:18;;;;;;;5.32;3.42;;;;;;;8.71;100.00;98437.38;10536854;28;20102;-68
2022/11/17 00:39:22;;;;;;;3.70;1.90;;;;;;;8.72;100.00;98424.25;10535564;28;20499;-70
2022/11/17 00:44:24;;;;;;;1.58;1.48;;;;;;;8.72;100.00;98423.44;10536380;28;20056;-77
2022/11/17 00:49:27;;;;;;;5.68;2.35;;;;;;;8.75;100.00;98431.84;10533986;28;20063;-74
2022/11/17 00:54:29;;;;;;;4.18;2.85;;;;;;;8.78;100.00;98414.34;10536297;28;20048;-72
2022/11/17 00:59:31;;;;;;;3.55;2.20;;;;;;;8.78;100.00;98411.75;10536482;28;20503;-70
2022/11/17 01:04:34;;;;;;;4.15;2.72;;;;;;;8.79;100.00;98416.84;10535863;28;20446;-77
2022/11/17 01:09:35;;;;;;;1.52;1.42;;;;;;;8.82;100.00;98397.56;10536201;28;20094;-74
2022/11/17 01:14:37;;;;;;;3.50;2.35;;;;;;;8.81;100.00;98375.13;10536495;28;20106;-73
2022/11/17 01:19:40;;;;;;;778.67;304.83;;;;;;;8.97;100.00;98365.22;10533142;28;20044;-70
2022/11/17 01:24:42;;;;;;;2.90;2.03;;;;;;;9.02;100.00;98368.31;10535715;28;20123;-73
2022/11/17 01:29:44;;;;;;;2.20;2.00;;;;;;;8.96;100.00;98367.94;10535108;28;20553;-70
2022/11/17 01:34:47;;;;;;;1.88;1.60;;;;;;;9.00;100.00;98354.56;10535184;28;20558;-69
2022/11/17 01:39:50;;;;;;;1.13;1.02;;;;;;;9.12;100.00;98331.19;10535486;28;20097;-69
2022/11/17 01:44:58;;;;;;;1.98;0.90;;;;;;;9.22;100.00;98326.94;10534986;28;20109;-67
2022/11/17 01:50:07;;;;;;;3.03;1.35;;;;;;;9.21;100.00;98327.84;10534551;28;20056;-68
2022/11/17 01:55:11;;;;;;;3.28;1.48;;;;;;;9.17;100.00;98329.03;10542516;28;20062;-73
2022/11/17 02:00:14;;;;;;;1.83;1.25;;;;;;;9.30;100.00;98330.72;10543065;28;20044;-69
2022/11/17 02:05:39;;;;;;;2.03;1.65;;;;;;;9.34;100.00;98283.50;10542708;28;20048;-69
2022/11/17 02:10:43;;;;;;;3.35;1.90;;;;;;;9.44;100.00;98319.22;10542279;28;20097;-73
2022/11/17 02:15:45;;;;;;;2.35;2.05;;;;;;;9.39;100.00;98316.97;10541937;28;20081;-72
2022/11/17 02:21:10;;;;;;;2.17;1.63;;;;;;;9.35;100.00;98315.56;10540293;28;20048;-81
2022/11/17 02:26:40;;;;;;;3.45;1.98;;;;;;;9.49;100.00;98291.88;10542582;28;20492;-81
2022/11/17 02:31:57;;;;;;;2.38;1.52;;;;;;;9.61;100.00;98310.91;10541223;28;20044;-79
2022/11/17 02:37:09;;;;;;;2.95;1.50;;;;;;;9.36;100.00;98270.34;10541498;28;20070;-78
2022/11/17 02:44:02;;;;;;;0.93;0.93;;;;;;;9.42;100.00;98259.47;10541829;28;20098;-77
2022/11/17 02:47:49;;;;;;;2.47;1.20;;;;;;;9.36;100.00;98266.00;10538580;28;20069;-76
2022/11/17 02:52:51;;;;;;;1.15;1.05;;;;;;;9.39;100.00;98244.09;10541078;28;20169;-74
2022/11/17 02:57:53;;;;;;;1.67;0.95;;;;;;;9.32;100.00;98237.72;10540931;28;20048;-75
2022/11/17 03:03:26;;;;;;;1.35;0.82;;;;;;;9.28;100.00;98235.34;10539891;28;20044;-77
2022/11/17 03:08:43;;;;;;;0.80;0.80;;;;;;;9.23;100.00;98221.03;10540495;28;20077;-76
2022/11/17 03:13:51;;;;;;;0.65;0.65;;;;;;;9.18;100.00;98218.81;10540004;28;20113;-77
2022/11/17 03:19:11;;;;;;;0.90;0.90;;;;;;;9.13;100.00;98213.13;10537572;28;20116;-78
2022/11/17 03:24:19;;;;;;;1.25;0.80;;;;;;;9.20;100.00;98224.72;10539974;28;20090;-76
2022/11/17 03:29:26;;;;;;;0.52;0.52;;;;;;;9.16;100.00;98199.09;10539064;28;20052;-74
2022/11/17 03:34:35;;;;;;;0.60;0.60;;;;;;;9.13;100.00;98195.75;10539322;28;20058;-76
2022/11/17 03:39:43;;;;;;;0.30;0.30;;;;;;;9.30;100.00;98182.38;10539598;28;20058;-78
2022/11/17 03:44:53;;;;;;;1.65;0.68;;;;;;;9.27;100.00;98175.59;10539204;28;20048;-76
2022/11/17 03:50:03;;;;;;;1.95;0.82;;;;;;;9.24;100.00;98176.69;10535865;28;20097;-72
2022/11/17 03:55:08;;;;;;;1.50;0.93;;;;;;;9.28;100.00;98164.28;10538413;28;20047;-73
2022/11/17 04:00:13;;;;;;;0.65;0.65;;;;;;;9.37;100.00;98163.53;10537829;28;20255;-73
2022/11/17 04:05:18;;;;;;;4.05;0.75;;;;;;;9.44;100.00;98163.84;10538377;28;20044;-72
2022/11/17 04:10:24;;;;;;;0.25;0.25;;;;;;;9.53;100.00;98142.28;10538041;28;20052;-72
2022/11/17 04:20:51;;;;;;;1.02;0.77;;;;;;;9.48;100.00;98154.03;10538523;28;20397;-73
2022/11/17 04:31:18;;;;;;;1.75;0.98;;;;;;;9.23;100.00;98163.78;10536967;28;20048;-73
2022/11/17 04:36:24;;;;;;;2.15;1.15;;;;;;;9.07;100.00;98165.00;10536425;28;20102;-72
2022/11/17 04:46:49;;;;;;;1.33;1.17;;;;;;;8.95;100.00;98133.00;10534289;28;20511;-70
2022/11/17 04:51:54;;;;;;;1.38;1.27;;;;;;;8.93;100.00;98111.47;10536474;28;20056;-70
2022/11/17 04:56:56;;;;;;;2.40;0.95;;;;;;;8.94;100.00;98110.56;10536258;28;20108;-71
2022/11/17 05:01:59;;;;;;;3.17;1.25;;;;;;;8.94;100.00;98109.72;10536548;28;20101;-70
2022/11/17 05:07:03;;;;;;;0.70;0.70;;;;;;;8.99;100.00;98125.78;10536015;28;20117;-72
2022/11/17 05:17:27;;;;;;;;;;;;;;;9.13;100.00;98119.47;10533739;28;20073;-72
2022/11/17 05:27:49;;;;;;;7.78;1.58;;;;;;;9.39;100.00;98158.19;10541787;28;20055;-72
2022/11/17 05:32:50;;;;;;;8.23;1.77;;;;;;;9.38;100.00;98146.13;10543689;28;20458;-69
2022/11/17 05:37:54;;;;;;;7.32;1.48;;;;;;;9.33;100.00;98156.91;10544143;28;20044;-71
2022/11/17 05:42:56;;;;;;;5.25;1.60;;;;;;;9.31;100.00;98158.00;10543449;28;20098;-69
2022/11/17 05:47:59;;;;;;;5.22;1.80;;;;;;;9.28;100.00;98159.88;10540492;28;20531;-69
2022/11/17 05:53:02;;;;;;;3.22;1.35;;;;;;;9.30;100.00;98161.56;10543107;28;20078;-69
2022/11/17 05:58:08;;;;;;;5.03;1.40;;;;;;;9.34;100.00;98171.56;10543067;28;20536;-69
2022/11/17 06:03:19;;;;;;;7.82;1.85;;;;;;;9.34;100.00;98175.97;10543047;28;20048;-72
2022/11/17 06:08:22;;;;;;;3.85;1.55;;;;;;;9.32;100.00;98180.47;10542589;28;20047;-70
2022/11/17 06:13:27;;;;;;;7.10;1.50;;;;;;;9.31;100.00;98197.84;10542506;28;20052;-71
2022/11/17 06:18:37;;;;;;;6.55;1.77;;;;;;;9.33;100.00;98187.31;10539487;28;20381;-71
2022/11/17 06:23:40;;;;;;;3.65;1.48;;;;;;;9.34;100.00;98200.19;10541669;28;20504;-75
2022/11/17 06:28:48;;;;;;;4.88;1.38;;;;;;;9.28;100.00;98204.13;10541594;28;20458;-73
2022/11/17 06:33:50;;;;;;;4.97;1.08;;;;;;;9.28;100.00;98211.94;10541384;28;20044;-72
2022/11/17 06:38:53;;;;;;;3.20;0.85;;;;;;;9.21;100.00;98205.53;10540329;28;20048;-72
2022/11/17 06:43:55;;;;;;;6.40;1.33;;;;;;;9.11;100.00;98215.03;10540937;28;20458;-73
2022/11/17 06:48:58;;;;;;;5.72;1.48;;;;;;;9.04;100.00;98230.31;10538583;28;20051;-70
2022/11/17 06:54:02;;;;;;;5.93;1.17;;;;;;;9.02;100.00;98233.03;10539504;28;20051;-70
2022/11/17 06:59:04;;;;;;;3.60;1.48;;;;;;;8.92;100.00;98239.03;10540285;28;20068;-71
2022/11/17 07:04:06;;;;;;;5.03;1.05;;;;;;;8.89;100.00;98237.50;10539245;28;20093;-66
2022/11/17 07:09:09;;;;;;;;;;;;;;;8.85;100.00;98241.31;10539047;28;20071;-71
2022/11/17 07:14:11;;;;;;;6.10;1.63;;;;;;;8.75;100.00;98246.38;10538730;28;20298;-73
2022/11/17 07:19:13;;;;;;;8.10;1.65;;;;;;;8.75;100.00;98252.41;10536556;28;20047;-68
2022/11/17 07:24:15;;;;;;;6.00;1.58;;;;;;;8.68;100.00;98261.63;10534230;28;20141;-68
2022/11/17 07:29:17;;;;;;;3.90;1.42;;;;;;;8.69;100.00;98258.06;10501139;28;20458;-69
2022/11/17 07:34:19;;;;;;;5.30;1.65;;;;;;;8.66;100.00;98258.34;10530212;28;20110;-71
2022/11/17 07:39:22;;;;;;;7.00;1.10;;;;;;;8.63;100.00;98268.97;10537101;28;20044;-71
2022/11/17 07:44:23;;;;;;;2.42;0.73;;;;;;;8.63;100.00;98274.97;10537907;28;20066;-70
2022/11/17 07:49:27;;;;;;;4.13;1.60;;;;;;;8.62;100.00;98277.69;10535680;28;20508;-71
2022/11/17 07:54:30;;;;;;;1.88;1.30;;;;;;;8.62;100.00;98283.72;10538863;28;20101;-71
2022/11/17 07:59:32;;;;;;;2.05;0.70;;;;;;;8.63;100.00;98289.75;10538230;28;20083;-70
2022/11/17 08:04:33;;;;;;;2.17;1.10;;;;;;;8.61;100.00;98302.03;10538252;28;20093;-69
2022/11/17 08:09:36;;;;;;;2.05;0.80;;;;;;;8.60;100.00;98310.78;10537534;28;20109;-72
2022/11/17 08:14:38;;;;;;;3.95;1.10;;;;;;;8.56;100.00;98310.19;10538380;28;20143;-70
2022/11/17 08:19:41;;;;;;;1.92;0.98;;;;;;;8.55;100.00;98312.91;10537033;28;20048;-74
2022/11/17 08:24:44;;;;;;;0.60;0.60;;;;;;;8.55;100.00;98334.50;10539536;28;20567;-74
2022/11/17 08:29:45;;;;;;;4.53;1.40;;;;;;;8.55;100.00;98337.09;10500760;28;20477;-69
2022/11/17 08:34:47;;;;;;;1.98;0.85;;;;;;;8.44;100.00;98331.84;10536735;28;20121;-67
2022/11/17 08:39:50;;;;;;;2.40;1.17;;;;;;;8.37;100.00;98341.88;10539800;28;20066;-69
2022/11/17 08:44:53;;;;;;;4.57;1.40;;;;;;;8.33;100.00;98356.88;10538670;28;20070;-69
2022/11/17 08:49:55;;;;;;;4.43;1.23;;;;;;;8.29;100.00;98349.41;10536086;28;20114;-70
2022/11/17 08:54:59;;;;;;;1.48;1.08;;;;;;;8.36;100.00;98345.41;10538151;28;20048;-71
2022/11/17 09:00:01;;;;;;;4.95;1.17;;;;;;;8.38;100.00;98364.31;10537649;28;20054;-70
2022/11/17 09:05:06;;;;;;;4.45;1.25;;;;;;;8.42;100.00;98363.13;10537859;28;20730;-69
2022/11/17 09:10:10;;;;;;;5.22;1.48;;;;;;;8.42;100.00;98368.34;10537833;28;20106;-68
2022/11/17 09:15:12;;;;;;;2.40;1.00;;;;;;;8.44;100.00;98379.47;10535761;28;20062;-71
2022/11/17 09:20:13;;;;;;;1.52;0.90;;;;;;;8.47;100.00;98379.25;10533485;28;20438;-72
2022/11/17 09:25:18;;;;;;;5.43;1.10;;;;;;;8.50;100.00;98383.38;10535326;28;20384;-70
2022/11/17 09:30:20;;;;;;;1.15;0.90;;;;;;;8.53;100.00;98388.41;10535878;28;20109;-71
2022/11/17 09:35:22;;;;;;;6.18;1.30;;;;;;;8.63;100.00;98388.56;10535929;28;20048;-74
2022/11/17 09:40:25;;;;;;;1.70;1.05;;;;;;;8.81;100.00;98395.91;10538255;23;20406;-80
2022/11/17 09:45:34;;;;;;;2.17;1.00;;;;;;;8.97;100.00;98395.63;10391768;28;20054;-79
2022/11/17 09:50:39;;;;;;;2.78;1.17;;;;;;;9.08;100.00;98411.25;10371078;28;20045;-80
2022/11/17 09:55:47;;;;;;;2.33;0.98;;;;;;;9.07;100.00;98412.16;10370335;28;20085;-80
2022/11/17 10:00:51;;;;;;;2.78;1.30;;;;;;;9.11;100.00;98408.41;10370877;28;20112;-80
2022/11/17 10:05:54;;;;;;;2.75;0.65;;;;;;;9.13;100.00;98422.13;10369330;28;20114;-79
2022/11/17 10:10:57;;;;;;;3.30;2.70;;;;;;;9.26;100.00;98423.81;10370641;28;20096;-80
2022/11/17 10:16:05;;;;;;;70.90;66.30;;;;;;;9.43;100.00;98438.13;10376321;28;20053;-79
2022/11/17 10:21:09;;;;;;;148.02;53.70;;;;;;;9.60;100.00;98456.84;10378194;28;20448;-77
2022/11/17 10:26:15;;;;;;;0.82;0.80;;;;;;;9.84;100.00;98454.13;10417456;28;20068;-79
2022/11/17 10:31:19;;;;;;;2.97;0.63;;;;;;;9.91;100.00;98446.66;10433945;28;20059;-79
2022/11/17 10:36:28;;;;;;;79.10;4.10;;;;;;;10.23;100.00;98469.34;10434143;28;20036;-80
2022/11/17 10:41:39;;;;;;;1.52;0.65;;;;;;;10.19;100.00;98473.16;10425504;28;20120;-80
2022/11/17 10:46:54;;;;;;;5.20;1.63;;;;;;;10.09;100.00;98474.84;10418158;28;20118;-80
2022/11/17 10:52:16;;;;;;;1.63;1.00;;;;;;;10.09;100.00;98474.84;10441161;28;20056;-79
2022/11/17 10:57:25;;;;;;;2.67;1.38;;;;;;;9.99;100.00;98478.16;10422575;28;20053;-76
2022/11/17 11:02:33;;;;;;;2.80;1.85;;;;;;;9.88;100.00;98481.59;10419354;28;20360;-78
2022/11/17 11:07:35;;;;;;;2.38;1.40;;;;;;;9.82;100.00;98494.28;10381865;28;20444;-76
2022/11/17 11:12:47;;;;;;;3.45;2.78;;;;;;;9.73;100.00;98481.00;10419339;28;20346;-80
2022/11/17 11:17:49;;;;;;;4.68;1.70;;;;;;;9.72;100.00;98500.16;10443981;28;20075;-79
2022/11/17 11:23:02;;;;;;;2.95;2.10;;;;;;;9.75;100.00;98505.16;10443133;28;20049;-79
2022/11/17 11:28:25;;;;;;;3.25;3.15;;;;;;;9.82;100.00;98504.69;10447571;28;20460;-78
2022/11/17 11:33:36;;;;;;;5.28;5.07;;;;;;;9.84;100.00;98502.78;10419144;28;20115;-80
2022/11/17 11:38:55;;;;;;;4.60;4.30;;;;;;;9.74;100.00;98510.47;10418923;28;20061;-78
2022/11/17 11:44:32;;;;;;;5.70;5.20;;;;;;;9.87;100.00;98528.59;10417821;28;20045;-77
2022/11/17 11:49:45;;;;;;;7.95;4.82;;;;;;;9.86;100.00;98527.75;10416517;28;20390;-78
2022/11/17 11:54:56;;;;;;;6.00;5.50;;;;;;;10.01;100.00;98530.97;10416786;28;20115;-78
2022/11/17 12:00:05;;;;;;;5.90;5.40;;;;;;;10.05;100.00;98532.41;10417523;28;20057;-78
2022/11/17 12:05:21;;;;;;;5.10;4.70;;;;;;;10.04;100.00;98528.16;10417734;28;20041;-79
2022/11/17 12:10:35;;;;;;;5.45;5.15;;;;;;;10.04;100.00;98542.94;10416746;28;20076;-80
2022/11/17 12:15:38;;;;;;;6.85;5.55;;;;;;;10.05;100.00;98532.41;10416879;28;20072;-79
2022/11/17 12:21:04;;;;;;;5.55;5.10;;;;;;;10.07;100.00;98539.28;10418901;28;20407;-78
2022/11/17 12:26:08;;;;;;;6.03;5.53;;;;;;;10.03;100.00;98549.91;10411204;28;20103;-79
2022/11/17 12:31:19;;;;;;;5.95;5.47;;;;;;;10.13;100.00;98564.88;10402136;28;20510;-79
2022/11/17 12:36:30;;;;;;;8.35;5.75;;;;;;;10.13;100.00;98559.66;10415273;28;20138;-78
2022/11/17 12:42:07;;;;;;;6.03;5.43;;;;;;;10.07;100.00;98560.13;10416614;28;20064;-77
2022/11/17 12:47:18;;;;;;;5.25;4.80;;;;;;;10.13;100.00;98564.88;10416523;28;20041;-80
2022/11/17 12:52:34;;;;;;;10.27;9.57;;;;;;;10.07;100.00;98560.13;10416018;28;20113;-79
2022/11/17 12:57:36;;;;;;;6.80;6.18;;;;;;;10.19;100.00;98564.38;10415558;28;20069;-80
2022/11/17 13:02:58;;;;;;;6.38;5.53;;;;;;;10.28;100.00;98562.84;10416911;28;20038;-78
2022/11/17 13:08:21;;;;;;;5.50;5.00;;;;;;;10.28;100.00;98568.06;10415645;28;20057;-78
2022/11/17 13:13:25;;;;;;;4.95;4.65;;;;;;;10.37;100.00;98582.16;10415907;28;20076;-80
2022/11/17 13:18:36;;;;;;;4.93;4.70;;;;;;;10.60;100.00;98579.56;10382188;28;20499;-79
2022/11/17 13:23:44;;;;;;;4.73;4.33;;;;;;;10.78;100.00;98577.28;10375539;28;20049;-78
2022/11/17 13:28:49;;;;;;;4.45;4.05;;;;;;;10.85;100.00;98590.66;10375338;28;20364;-80
2022/11/17 13:34:04;;;;;;;4.47;4.10;;;;;;;10.84;100.00;98592.41;10416177;28;20069;-83
2022/11/17 13:39:17;;;;;;;4.63;4.32;;;;;;;10.95;100.00;98599.41;10414509;28;20081;-79
2022/11/17 13:44:24;;;;;;;4.50;4.10;;;;;;;11.01;100.00;98604.13;10413972;28;20053;-82
2022/11/17 13:49:35;;;;;;;4.35;4.05;;;;;;;11.01;99.42;98605.91;10421076;28;20132;-80
2022/11/17 13:54:36;;;;;;;5.03;3.63;;;;;;;11.03;99.41;98612.69;10422170;28;20056;-80
2022/11/17 13:59:39;;;;;;;4.63;4.22;;;;;;;11.04;98.90;98610.88;10422438;28;20080;-80
2022/11/17 14:05:04;;;;;;;3.85;3.60;;;;;;;10.98;98.41;98614.00;10422098;28;20131;-80
2022/11/17 14:10:14;;;;;;;4.18;3.97;;;;;;;10.91;98.95;98614.47;10420982;28;20067;-80
2022/11/17 14:15:24;;;;;;;429.95;137.32;;;;;;;10.92;98.53;98610.09;10420991;28;20041;-80
2022/11/17 14:20:35;;;;;;;10.88;10.27;;;;;;;10.86;96.10;98619.22;10421975;28;20081;-79
2022/11/17 14:25:40;;;;;;;8.50;7.78;;;;;;;10.82;98.97;98629.06;10420996;28;20045;-79
2022/11/17 14:30:42;;;;;;;11.75;11.15;;;;;;;10.81;96.65;98630.03;10419859;28;20077;-79
2022/11/17 14:35:50;;;;;;;11.43;10.82;;;;;;;10.82;98.68;98639.50;10418923;28;20038;-80
2022/11/17 14:40:53;;;;;;;11.60;10.80;;;;;;;10.85;98.64;98627.19;10423789;28;20087;-78
2022/11/17 14:45:55;;;;;;;40.65;34.03;;;;;;;10.71;98.71;98639.50;10421133;28;20063;-79
2022/11/17 14:51:00;;;;;;;20.05;18.48;;;;;;;10.72;97.51;98651.63;10420569;28;20045;-80
2022/11/17 14:56:07;;;;;;;9.48;8.98;;;;;;;10.72;98.39;98656.00;10420096;28;20037;-79
2022/11/17 15:01:13;;;;;;;10.80;10.00;;;;;;;10.59;99.28;98664.78;10418574;28;20082;-81
2022/11/17 15:06:26;;;;;;;15.77;14.88;;;;;;;10.64;98.52;98677.50;10419231;28;20053;-80
2022/11/17 15:11:30;;;;;;;9.45;8.75;;;;;;;10.63;98.26;98676.66;10420263;28;20115;-77
2022/11/17 15:16:33;;;;;;;10.05;9.55;;;;;;;10.66;98.38;98675.56;10418649;28;20368;-79
2022/11/17 15:21:36;;;;;;;9.73;9.23;;;;;;;10.58;99.64;98683.16;10418807;28;20107;-80
2022/11/17 15:26:38;;;;;;;9.02;8.43;;;;;;;10.47;99.41;98684.81;10418370;28;20052;-79
2022/11/17 15:31:41;;;;;;;22.92;21.38;;;;;;;10.46;98.84;98696.19;10419514;28;20048;-79
2022/11/17 15:36:44;;;;;;;9.73;9.23;;;;;;;10.44;98.43;98708.50;10418362;28;20049;-79
2022/11/17 15:41:47;;;;;;;9.60;8.82;;;;;;;10.39;100.00;98705.41;10417826;28;20123;-79
2022/11/17 15:46:49;;;;;;;9.00;8.32;;;;;;;10.25;100.00;98712.50;10416929;28;20421;-78
2022/11/17 15:51:53;;;;;;;8.40;7.90;;;;;;;10.37;99.22;98712.53;10418037;28;20107;-78
2022/11/17 15:57:18;;;;;;;8.70;8.20;;;;;;;10.27;99.68;98723.63;10417052;28;20045;-83
2022/11/17 16:02:26;;;;;;;14.63;13.32;;;;;;;10.30;100.00;98728.63;10415980;28;20061;-83
2022/11/17 16:07:38;;;;;;;8.98;8.35;;;;;;;10.28;99.54;98735.75;10413542;28;20063;-82
2022/11/17 16:12:48;;;;;;;;;;;;;;;10.24;99.84;98738.69;10414978;28;20583;-82
2022/11/17 16:17:53;;;;;;;7.30;6.90;;;;;;;10.13;100.00;98742.09;10416490;28;20232;-81
2022/11/17 16:23:03;;;;;;;7.60;7.10;;;;;;;10.10;100.00;98737.09;10414451;28;20091;-81
2022/11/17 16:28:10;;;;;;;7.55;6.88;;;;;;;10.09;100.00;98749.28;10413119;28;20049;-87
2022/11/17 16:33:25;;;;;;;7.25;6.68;;;;;;;10.14;99.57;98754.19;10414070;28;20049;-86
2022/11/17 16:39:05;;;;;;;7.40;6.60;;;;;;;9.99;100.00;98761.34;10412358;28;20045;-86
2022/11/17 16:44:32;;;;;;;9.68;7.40;;;;;;;9.84;100.00;98769.34;10407244;28;20366;-84
2022/11/17 16:49:49;;;;;;;7.45;6.75;;;;;;;9.69;100.00;98773.91;10413432;28;20057;-85
2022/11/17 17:08:34;;;;;;;6.15;5.75;;;;;;;9.52;100.00;98791.53;10207017;29;20027;-88
2022/11/17 17:24:58;;;;;;;6.70;5.40;;;;;;;9.18;100.00;98796.53;10459256;28;20072;-68
2022/11/17 17:30:00;;;;;;;382.35;126.25;;;;;;;9.16;100.00;98803.59;10460293;28;20057;-67
2022/11/17 17:35:01;;;;;;;1.63;1.20;;;;;;;9.16;100.00;98811.41;10459529;28;20408;-71
2022/11/17 17:40:07;;;;;;;1.58;1.45;;;;;;;9.12;100.00;98808.19;10459988;28;20145;-67
2022/11/17 17:45:09;;;;;;;1.00;1.00;;;;;;;8.97;100.00;98828.28;10459779;28;20549;-68
2022/11/17 17:50:11;;;;;;;1.98;1.48;;;;;;;9.02;100.00;98831.41;10457271;28;20063;-67
2022/11/17 17:55:14;;;;;;;1.15;1.05;;;;;;;8.95;100.00;98845.78;10457920;28;20185;-69
2022/11/17 18:00:18;;;;;;;1.90;1.52;;;;;;;8.94;100.00;98843.28;10459308;28;20102;-71
2022/11/17 18:05:21;;;;;;;4.53;2.55;;;;;;;8.87;100.00;98848.88;10458189;28;20463;-70
2022/11/17 18:10:24;;;;;;;2.17;1.70;;;;;;;8.93;100.00;98852.84;10458632;28;20048;-70
2022/11/17 18:15:26;;;;;;;3.80;2.75;;;;;;;8.92;100.00;98856.38;10458630;28;20477;-67
2022/11/17 18:20:27;;;;;;;1.77;1.67;;;;;;;8.76;100.00;98856.59;10455679;28;20049;-67
2022/11/17 18:25:32;;;;;;;4.03;1.60;;;;;;;8.64;100.00;98858.22;10457676;28;20049;-66
2022/11/17 18:30:34;;;;;;;2.25;1.20;;;;;;;8.66;100.00;98866.78;10457144;28;20053;-67
2022/11/17 18:35:40;;;;;;;9.68;1.58;;;;;;;8.58;100.00;98874.22;10456973;28;20079;-68
2022/11/17 18:40:44;;;;;;;1.77;1.67;;;;;;;8.48;100.00;98880.00;10456997;28;20158;-67
2022/11/17 18:45:46;;;;;;;2.30;1.65;;;;;;;8.57;100.00;98893.38;10456649;28;20040;-69
2022/11/17 18:50:49;;;;;;;1.50;1.40;;;;;;;8.52;100.00;98905.81;10446921;28;20496;-68
2022/11/17 18:55:52;;;;;;;3.97;1.33;;;;;;;8.42;100.00;98900.38;10455201;28;20045;-67
2022/11/17 19:00:54;;;;;;;2.28;1.55;;;;;;;8.38;100.00;98907.50;10456635;28;20067;-69
2022/11/17 19:05:56;;;;;;;1.63;1.23;;;;;;;8.41;100.00;98909.91;10457807;28;20041;-68
2022/11/17 19:11:00;;;;;;;4.55;1.50;;;;;;;8.45;100.00;98915.78;10457409;28;20048;-67
2022/11/17 19:16:06;;;;;;;1.40;1.30;;;;;;;8.47;100.00;98916.50;10457197;28;20045;-67
2022/11/17 19:21:10;;;;;;;1.67;1.52;;;;;;;8.36;100.00;98935.38;10454274;28;20048;-68
2022/11/17 19:26:16;;;;;;;4.05;1.30;;;;;;;8.39;100.00;98932.59;10456495;28;20553;-67
2022/11/17 19:31:20;;;;;;;1.95;1.75;;;;;;;8.46;100.00;98933.03;10456314;28;20073;-69
2022/11/17 19:36:24;;;;;;;3.35;1.65;;;;;;;8.47;100.00;98935.53;10455998;28;20083;-69
2022/11/17 19:41:30;;;;;;;1.33;1.25;;;;;;;8.35;100.00;98941.53;10455880;28;20052;-69
2022/11/17 19:46:34;;;;;;;4.53;1.77;;;;;;;8.37;100.00;98940.50;10452905;28;20056;-67
2022/11/17 19:51:37;;;;;;;1.52;1.40;;;;;;;8.33;100.00;98953.75;10453546;28;20099;-67
2022/11/17 19:56:40;;;;;;;1.48;1.38;;;;;;;8.36;100.00;98964.78;10455316;28;20511;-67
2022/11/17 20:01:41;;;;;;;0.80;0.80;;;;;;;8.23;100.00;98980.34;10454903;28;20103;-68
2022/11/17 20:06:43;;;;;;;2.10;1.80;;;;;;;8.29;100.00;98973.94;10455376;28;20470;-69
2022/11/17 20:11:46;;;;;;;2.45;1.55;;;;;;;8.23;100.00;98982.09;10455109;28;20052;-71
2022/11/17 20:16:48;;;;;;;3.20;1.10;;;;;;;8.28;100.00;98976.63;10452225;28;20185;-68
2022/11/17 20:21:49;;;;;;;2.38;1.83;;;;;;;8.25;100.00;98983.66;10454097;28;20087;-67
2022/11/17 20:26:52;;;;;;;1.95;1.45;;;;;;;8.20;100.00;99000.47;10455798;28;20466;-67
2022/11/17 20:31:54;;;;;;;1.55;1.35;;;;;;;8.13;100.00;99005.22;10455434;28;20052;-67
2022/11/17 20:36:56;;;;;;;1.80;1.70;;;;;;;8.04;100.00;99022.19;10454806;28;20118;-68
2022/11/17 20:42:00;;;;;;;1.83;1.55;;;;;;;8.02;100.00;99028.44;10455779;28;20070;-68
2022/11/17 20:47:02;;;;;;;8.48;1.58;;;;;;;7.86;100.00;99039.75;10452746;28;20052;-66
2022/11/17 20:52:05;;;;;;;1.17;1.08;;;;;;;7.84;100.00;99046.81;10453766;28;20056;-67
2022/11/17 20:57:08;;;;;;;1.52;1.40;;;;;;;7.79;100.00;99051.41;10453257;28;20053;-67
2022/11/17 21:02:12;;;;;;;1.55;1.45;;;;;;;7.63;100.00;99054.91;10454563;28;20432;-67
2022/11/17 21:07:13;;;;;;;3.35;1.60;;;;;;;7.57;100.00;99056.13;10454647;28;20084;-67
2022/11/17 21:12:18;;;;;;;4.13;2.10;;;;;;;7.54;100.00;99058.06;10453851;28;20109;-68
2022/11/17 21:22:36;;;;;;;2.08;1.50;;;;;;;7.40;100.00;99077.88;10441108;28;20094;-67
2022/11/17 21:27:40;;;;;;;5.82;1.95;;;;;;;7.40;100.00;99075.28;10453769;28;20467;-68
2022/11/17 21:32:41;;;;;;;3.50;1.58;;;;;;;7.37;100.00;99072.88;10452303;28;20056;-68
2022/11/17 21:37:43;;;;;;;1.63;1.55;;;;;;;7.35;100.00;99077.28;10451966;28;20106;-67
2022/11/17 21:42:46;;;;;;;2.00;1.65;;;;;;;7.24;100.00;99080.50;10451692;28;20045;-67
2022/11/17 21:47:48;;;;;;;1.55;1.40;;;;;;;7.19;100.00;99085.94;10449167;28;20049;-67
2022/11/17 21:52:49;;;;;;;1.70;1.40;;;;;;;7.16;100.00;99093.94;10451904;28;20049;-67
2022/11/17 21:57:52;;;;;;;4.28;1.80;;;;;;;7.14;100.00;99093.16;10451261;28;20512;-67
2022/11/17 22:02:57;;;;;;;4.07;2.00;;;;;;;7.03;100.00;99103.31;10451414;28;20064;-67
2022/11/17 22:07:59;;;;;;;1.83;1.17;;;;;;;7.01;100.00;99105.16;10453833;28;20059;-67
2022/11/17 22:13:03;;;;;;;1.88;1.65;;;;;;;6.86;100.00;99107.66;10459176;28;20063;-68
2022/11/17 22:18:05;;;;;;;2.28;1.55;;;;;;;6.87;100.00;99109.34;10456619;28;20041;-68
2022/11/17 22:23:08;;;;;;;1.13;1.08;;;;;;;6.98;100.00;99118.28;10458767;28;20059;-68
2022/11/17 22:28:13;;;;;;;3.72;1.75;;;;;;;6.93;100.00;99129.75;10458360;28;20477;-68
2022/11/17 22:33:16;;;;;;;3.38;1.50;;;;;;;6.86;100.00;99140.53;10458297;28;20051;-67
2022/11/17 22:38:18;;;;;;;3.47;1.50;;;;;;;6.85;100.00;99147.50;10458523;28;20044;-67
2022/11/17 22:43:21;;;;;;;4.22;1.88;;;;;;;6.91;100.00;99148.91;10457888;28;20091;-68
2022/11/17 22:48:23;;;;;;;3.40;1.15;;;;;;;6.95;100.00;99153.84;10455707;28;20075;-68
2022/11/17 22:53:24;;;;;;;5.07;1.88;;;;;;;6.90;100.00;99155.84;10457772;28;20045;-67
2022/11/17 22:58:27;;;;;;;1.38;1.33;;;;;;;6.94;100.00;99161.69;10457875;28;20057;-70
2022/11/17 23:03:31;;;;;;;1.67;1.58;;;;;;;7.06;100.00;99165.41;10457094;28;20439;-67
2022/11/17 23:08:33;;;;;;;1.77;1.38;;;;;;;6.97;100.00;99169.31;10456959;28;20059;-68
2022/11/17 23:13:36;;;;;;;3.20;1.70;;;;;;;6.97;100.00;99177.09;10457076;28;20099;-67
2022/11/17 23:18:44;;;;;;;4.85;1.65;;;;;;;6.88;100.00;99183.63;10453397;28;20455;-69
2022/11/17 23:23:45;;;;;;;1.60;1.50;;;;;;;6.83;100.00;99190.81;10456887;28;20115;-70
2022/11/17 23:28:49;;;;;;;1.45;1.30;;;;;;;6.85;100.00;99196.78;10456595;28;20049;-72
2022/11/17 23:33:50;;;;;;;5.20;1.77;;;;;;;6.79;100.00;99194.50;10456083;28;20045;-74
2022/11/17 23:38:55;;;;;;;1.45;1.38;;;;;;;6.70;100.00;99198.41;10455664;28;20463;-72
2022/11/17 23:43:58;;;;;;;1.88;1.40;;;;;;;6.73;100.00;99205.16;10456148;28;20060;-73
2022/11/17 23:49:00;;;;;;;1.65;1.55;;;;;;;6.73;100.00;99210.34;10453167;28;20121;-72
2022/11/17 23:54:03;;;;;;;5.03;2.42;;;;;;;6.70;100.00;99212.22;10455626;28;20243;-71
2022/11/17 23:59:07;;;;;;;5.50;2.38;;;;;;;6.70;100.00;99212.22;10455234;28;20075;-72
